Patricksburg, Indiana
Current Conditions -  °F | °C
As of 3:53 PM on Saturday 22 Nov 2014 (Local Time) from KHUF Reporting Station
Broken Clouds Broken Clouds  
Wind Chill: 57°   Ceiling: 4600
Heat Index: 57°   Visibility: 10mi
Dew Point: 43°   Wind: 13mph
Humidity: 59%   Direction: 200°SSW
Pressure: 30.02"   Gusts: NA
Location:  39.32°N, 86.96°W
Report Text: KHUF 222053Z 20011KT 10SM BKN046 BKN065 14/06 A3002 RMK AO2 SLP168 T01390061 56024
Loading
Personal Weather Stations






























Interactive Weather Map New forecast layout! Learn more

10-Day Weather Forecast

Advertisements
Track Severe Weather on mobile